sensor_id;sensor_type;location;lat;lon;timestamp;P1;durP1;ratioP1;P2;durP2;ratioP2
21030;SDS011;61072;47.808;7.636;2023-08-20T00:00:20;7.88;;;4.10;;
21030;SDS011;61072;47.808;7.636;2023-08-20T00:02:49;7.53;;;4.10;;
21030;SDS011;61072;47.808;7.636;2023-08-20T00:05:21;5.57;;;4.35;;
21030;SDS011;61072;47.808;7.636;2023-08-20T00:07:48;7.85;;;5.20;;
21030;SDS011;61072;47.808;7.636;2023-08-20T00:10:15;8.13;;;4.32;;
21030;SDS011;61072;47.808;7.636;2023-08-20T00:12:42;7.13;;;4.70;;
21030;SDS011;61072;47.808;7.636;2023-08-20T00:15:08;9.23;;;4.30;;
21030;SDS011;61072;47.808;7.636;2023-08-20T00:17:36;8.52;;;4.65;;
21030;SDS011;61072;47.808;7.636;2023-08-20T00:20:05;10.43;;;5.18;;
21030;SDS011;61072;47.808;7.636;2023-08-20T00:22:39;7.63;;;4.70;;
21030;SDS011;61072;47.808;7.636;2023-08-20T00:25:08;10.63;;;4.85;;
21030;SDS011;61072;47.808;7.636;2023-08-20T00:27:36;7.15;;;4.72;;
21030;SDS011;61072;47.808;7.636;2023-08-20T00:30:03;6.50;;;5.35;;
21030;SDS011;61072;47.808;7.636;2023-08-20T00:32:30;10.68;;;4.90;;
21030;SDS011;61072;47.808;7.636;2023-08-20T00:34:57;9.02;;;4.72;;
21030;SDS011;61072;47.808;7.636;2023-08-20T00:37:25;7.28;;;4.68;;
21030;SDS011;61072;47.808;7.636;2023-08-20T00:39:52;6.00;;;4.50;;
21030;SDS011;61072;47.808;7.636;2023-08-20T00:42:18;5.18;;;4.50;;
21030;SDS011;61072;47.808;7.636;2023-08-20T00:44:45;6.32;;;4.47;;
21030;SDS011;61072;47.808;7.636;2023-08-20T00:47:13;8.43;;;5.32;;
21030;SDS011;61072;47.808;7.636;2023-08-20T00:49:40;8.88;;;4.93;;
21030;SDS011;61072;47.808;7.636;2023-08-20T00:52:08;6.18;;;4.30;;
21030;SDS011;61072;47.808;7.636;2023-08-20T00:54:36;7.07;;;4.95;;
21030;SDS011;61072;47.808;7.636;2023-08-20T00:57:05;8.50;;;4.88;;
21030;SDS011;61072;47.808;7.636;2023-08-20T00:59:33;6.95;;;4.78;;
21030;SDS011;61072;47.808;7.636;2023-08-20T01:02:00;9.65;;;5.00;;
21030;SDS011;61072;47.808;7.636;2023-08-20T01:04:28;7.50;;;4.75;;
21030;SDS011;61072;47.808;7.636;2023-08-20T01:07:10;6.70;;;4.95;;
21030;SDS011;61072;47.808;7.636;2023-08-20T01:09:54;6.57;;;4.60;;
21030;SDS011;61072;47.808;7.636;2023-08-20T01:12:29;8.15;;;4.88;;
21030;SDS011;61072;47.808;7.636;2023-08-20T01:14:57;10.25;;;5.07;;
21030;SDS011;61072;47.808;7.636;2023-08-20T01:17:24;7.30;;;5.50;;
21030;SDS011;61072;47.808;7.636;2023-08-20T01:19:51;7.38;;;4.95;;
21030;SDS011;61072;47.808;7.636;2023-08-20T01:28:17;9.77;;;5.18;;
21030;SDS011;61072;47.808;7.636;2023-08-20T01:30:52;8.05;;;4.72;;
21030;SDS011;61072;47.808;7.636;2023-08-20T01:33:20;8.57;;;5.75;;
21030;SDS011;61072;47.808;7.636;2023-08-20T01:35:47;9.30;;;4.80;;
21030;SDS011;61072;47.808;7.636;2023-08-20T01:38:14;11.05;;;4.80;;
21030;SDS011;61072;47.808;7.636;2023-08-20T01:40:41;9.95;;;5.20;;
21030;SDS011;61072;47.808;7.636;2023-08-20T01:43:08;8.20;;;4.75;;
21030;SDS011;61072;47.808;7.636;2023-08-20T01:45:34;7.55;;;5.22;;
21030;SDS011;61072;47.808;7.636;2023-08-20T01:48:01;7.50;;;5.38;;
21030;SDS011;61072;47.808;7.636;2023-08-20T01:50:30;9.32;;;4.68;;
21030;SDS011;61072;47.808;7.636;2023-08-20T01:52:57;6.63;;;5.30;;
21030;SDS011;61072;47.808;7.636;2023-08-20T01:55:23;7.60;;;5.25;;
21030;SDS011;61072;47.808;7.636;2023-08-20T01:57:50;6.75;;;5.22;;
21030;SDS011;61072;47.808;7.636;2023-08-20T02:00:17;8.52;;;5.80;;
21030;SDS011;61072;47.808;7.636;2023-08-20T02:02:43;7.40;;;4.93;;
21030;SDS011;61072;47.808;7.636;2023-08-20T02:05:10;6.47;;;4.63;;
21030;SDS011;61072;47.808;7.636;2023-08-20T02:07:37;9.07;;;5.13;;
21030;SDS011;61072;47.808;7.636;2023-08-20T02:10:04;8.93;;;5.13;;
21030;SDS011;61072;47.808;7.636;2023-08-20T02:12:31;10.98;;;5.13;;
21030;SDS011;61072;47.808;7.636;2023-08-20T02:14:58;7.05;;;4.95;;
21030;SDS011;61072;47.808;7.636;2023-08-20T02:17:25;7.60;;;5.10;;
21030;SDS011;61072;47.808;7.636;2023-08-20T02:19:52;7.97;;;5.63;;
21030;SDS011;61072;47.808;7.636;2023-08-20T02:22:18;8.02;;;6.10;;
21030;SDS011;61072;47.808;7.636;2023-08-20T02:24:47;10.73;;;6.35;;
21030;SDS011;61072;47.808;7.636;2023-08-20T02:27:13;6.70;;;5.57;;
21030;SDS011;61072;47.808;7.636;2023-08-20T02:29:40;8.63;;;5.65;;
21030;SDS011;61072;47.808;7.636;2023-08-20T02:32:07;10.32;;;5.40;;
21030;SDS011;61072;47.808;7.636;2023-08-20T02:34:34;12.90;;;6.25;;
21030;SDS011;61072;47.808;7.636;2023-08-20T02:37:00;9.82;;;5.72;;
21030;SDS011;61072;47.808;7.636;2023-08-20T02:39:27;8.50;;;5.90;;
21030;SDS011;61072;47.808;7.636;2023-08-20T02:41:54;7.10;;;5.07;;
21030;SDS011;61072;47.808;7.636;2023-08-20T02:44:20;8.95;;;5.30;;
21030;SDS011;61072;47.808;7.636;2023-08-20T02:46:47;8.15;;;5.82;;
21030;SDS011;61072;47.808;7.636;2023-08-20T02:49:14;9.85;;;5.53;;
21030;SDS011;61072;47.808;7.636;2023-08-20T02:51:42;9.63;;;5.95;;
21030;SDS011;61072;47.808;7.636;2023-08-20T02:54:09;8.55;;;5.25;;
21030;SDS011;61072;47.808;7.636;2023-08-20T02:56:36;8.73;;;6.25;;
21030;SDS011;61072;47.808;7.636;2023-08-20T02:59:03;8.88;;;5.38;;
21030;SDS011;61072;47.808;7.636;2023-08-20T03:01:30;11.02;;;5.63;;
21030;SDS011;61072;47.808;7.636;2023-08-20T03:03:56;8.10;;;5.63;;
21030;SDS011;61072;47.808;7.636;2023-08-20T03:06:23;20.83;;;7.07;;
21030;SDS011;61072;47.808;7.636;2023-08-20T03:08:50;9.18;;;6.03;;
21030;SDS011;61072;47.808;7.636;2023-08-20T03:11:16;7.85;;;6.00;;
21030;SDS011;61072;47.808;7.636;2023-08-20T03:13:44;9.02;;;5.53;;
21030;SDS011;61072;47.808;7.636;2023-08-20T03:16:11;9.68;;;6.07;;
21030;SDS011;61072;47.808;7.636;2023-08-20T03:18:37;9.90;;;6.00;;
21030;SDS011;61072;47.808;7.636;2023-08-20T03:21:04;7.47;;;5.60;;
21030;SDS011;61072;47.808;7.636;2023-08-20T03:23:31;8.05;;;5.70;;
21030;SDS011;61072;47.808;7.636;2023-08-20T03:25:58;7.22;;;5.47;;
21030;SDS011;61072;47.808;7.636;2023-08-20T03:28:25;10.27;;;5.40;;
21030;SDS011;61072;47.808;7.636;2023-08-20T03:30:52;8.65;;;5.75;;
21030;SDS011;61072;47.808;7.636;2023-08-20T03:33:18;15.25;;;6.05;;
21030;SDS011;61072;47.808;7.636;2023-08-20T03:35:45;7.50;;;5.20;;
21030;SDS011;61072;47.808;7.636;2023-08-20T03:38:12;8.93;;;5.68;;
21030;SDS011;61072;47.808;7.636;2023-08-20T03:40:39;7.47;;;5.10;;
21030;SDS011;61072;47.808;7.636;2023-08-20T03:43:05;9.18;;;5.35;;
21030;SDS011;61072;47.808;7.636;2023-08-20T03:45:32;7.25;;;5.07;;
21030;SDS011;61072;47.808;7.636;2023-08-20T03:47:59;8.57;;;5.43;;
21030;SDS011;61072;47.808;7.636;2023-08-20T03:50:26;6.00;;;5.40;;
21030;SDS011;61072;47.808;7.636;2023-08-20T03:52:53;7.85;;;5.50;;
21030;SDS011;61072;47.808;7.636;2023-08-20T03:55:19;5.65;;;5.07;;
21030;SDS011;61072;47.808;7.636;2023-08-20T03:57:46;8.18;;;5.53;;
21030;SDS011;61072;47.808;7.636;2023-08-20T04:00:13;7.25;;;5.47;;
21030;SDS011;61072;47.808;7.636;2023-08-20T04:02:40;7.40;;;5.20;;
21030;SDS011;61072;47.808;7.636;2023-08-20T04:05:07;9.90;;;5.85;;
21030;SDS011;61072;47.808;7.636;2023-08-20T04:07:34;9.07;;;5.57;;
21030;SDS011;61072;47.808;7.636;2023-08-20T04:10:01;7.72;;;5.35;;
21030;SDS011;61072;47.808;7.636;2023-08-20T04:12:28;8.93;;;5.50;;
21030;SDS011;61072;47.808;7.636;2023-08-20T04:14:55;8.90;;;5.53;;
21030;SDS011;61072;47.808;7.636;2023-08-20T04:17:22;6.57;;;5.78;;
21030;SDS011;61072;47.808;7.636;2023-08-20T04:19:48;8.57;;;5.50;;
21030;SDS011;61072;47.808;7.636;2023-08-20T04:22:15;7.88;;;6.15;;
21030;SDS011;61072;47.808;7.636;2023-08-20T04:24:42;7.55;;;5.68;;
21030;SDS011;61072;47.808;7.636;2023-08-20T04:27:09;9.38;;;5.20;;
21030;SDS011;61072;47.808;7.636;2023-08-20T04:29:35;6.43;;;5.10;;
21030;SDS011;61072;47.808;7.636;2023-08-20T04:32:02;7.22;;;5.53;;
21030;SDS011;61072;47.808;7.636;2023-08-20T04:34:29;7.60;;;5.93;;
21030;SDS011;61072;47.808;7.636;2023-08-20T04:36:56;9.95;;;5.55;;
21030;SDS011;61072;47.808;7.636;2023-08-20T04:39:22;10.88;;;5.88;;
21030;SDS011;61072;47.808;7.636;2023-08-20T04:41:49;10.65;;;5.93;;
21030;SDS011;61072;47.808;7.636;2023-08-20T04:44:16;9.85;;;5.47;;
21030;SDS011;61072;47.808;7.636;2023-08-20T04:46:43;15.32;;;6.20;;
21030;SDS011;61072;47.808;7.636;2023-08-20T04:49:09;8.30;;;5.50;;
21030;SDS011;61072;47.808;7.636;2023-08-20T04:51:36;12.05;;;6.00;;
21030;SDS011;61072;47.808;7.636;2023-08-20T04:54:03;5.95;;;5.28;;
21030;SDS011;61072;47.808;7.636;2023-08-20T04:56:30;9.07;;;6.10;;
21030;SDS011;61072;47.808;7.636;2023-08-20T04:58:57;7.25;;;5.85;;
21030;SDS011;61072;47.808;7.636;2023-08-20T05:01:23;9.20;;;6.68;;
21030;SDS011;61072;47.808;7.636;2023-08-20T05:03:50;8.57;;;5.85;;
21030;SDS011;61072;47.808;7.636;2023-08-20T05:06:17;9.68;;;5.35;;
21030;SDS011;61072;47.808;7.636;2023-08-20T05:08:44;12.90;;;6.25;;
21030;SDS011;61072;47.808;7.636;2023-08-20T05:11:10;8.48;;;5.45;;
21030;SDS011;61072;47.808;7.636;2023-08-20T05:13:37;7.30;;;5.13;;
21030;SDS011;61072;47.808;7.636;2023-08-20T05:16:04;6.75;;;6.00;;
21030;SDS011;61072;47.808;7.636;2023-08-20T05:18:30;8.38;;;5.70;;
21030;SDS011;61072;47.808;7.636;2023-08-20T05:20:57;9.80;;;5.72;;
21030;SDS011;61072;47.808;7.636;2023-08-20T05:23:24;6.20;;;5.32;;
21030;SDS011;61072;47.808;7.636;2023-08-20T05:25:51;6.65;;;5.80;;
21030;SDS011;61072;47.808;7.636;2023-08-20T05:28:17;11.18;;;6.00;;
21030;SDS011;61072;47.808;7.636;2023-08-20T05:30:51;12.90;;;6.40;;
21030;SDS011;61072;47.808;7.636;2023-08-20T05:33:22;8.93;;;6.03;;
21030;SDS011;61072;47.808;7.636;2023-08-20T05:35:50;10.57;;;5.60;;
21030;SDS011;61072;47.808;7.636;2023-08-20T05:38:16;10.52;;;5.80;;
21030;SDS011;61072;47.808;7.636;2023-08-20T05:40:43;8.43;;;5.28;;
21030;SDS011;61072;47.808;7.636;2023-08-20T05:43:10;8.35;;;6.22;;
21030;SDS011;61072;47.808;7.636;2023-08-20T05:45:37;6.60;;;5.50;;
21030;SDS011;61072;47.808;7.636;2023-08-20T05:48:04;11.48;;;6.07;;
21030;SDS011;61072;47.808;7.636;2023-08-20T05:50:31;10.02;;;6.45;;
21030;SDS011;61072;47.808;7.636;2023-08-20T05:52:57;8.73;;;6.00;;
21030;SDS011;61072;47.808;7.636;2023-08-20T05:55:24;10.40;;;6.10;;
21030;SDS011;61072;47.808;7.636;2023-08-20T05:57:51;8.75;;;6.18;;
21030;SDS011;61072;47.808;7.636;2023-08-20T06:00:18;9.70;;;5.40;;
21030;SDS011;61072;47.808;7.636;2023-08-20T06:02:44;8.50;;;5.80;;
21030;SDS011;61072;47.808;7.636;2023-08-20T06:05:11;7.40;;;5.72;;
21030;SDS011;61072;47.808;7.636;2023-08-20T06:07:38;7.65;;;5.47;;
21030;SDS011;61072;47.808;7.636;2023-08-20T06:10:06;7.10;;;5.50;;
21030;SDS011;61072;47.808;7.636;2023-08-20T06:12:33;11.02;;;5.97;;
21030;SDS011;61072;47.808;7.636;2023-08-20T06:15:00;6.30;;;5.70;;
21030;SDS011;61072;47.808;7.636;2023-08-20T06:17:27;8.95;;;5.35;;
21030;SDS011;61072;47.808;7.636;2023-08-20T06:19:54;6.82;;;5.53;;
21030;SDS011;61072;47.808;7.636;2023-08-20T06:22:21;9.82;;;5.80;;
21030;SDS011;61072;47.808;7.636;2023-08-20T06:24:47;7.90;;;6.00;;
21030;SDS011;61072;47.808;7.636;2023-08-20T06:27:14;8.40;;;6.15;;
21030;SDS011;61072;47.808;7.636;2023-08-20T06:29:41;9.57;;;6.18;;
21030;SDS011;61072;47.808;7.636;2023-08-20T06:32:08;11.80;;;6.00;;
21030;SDS011;61072;47.808;7.636;2023-08-20T06:34:34;6.63;;;5.95;;
21030;SDS011;61072;47.808;7.636;2023-08-20T06:37:02;7.63;;;5.68;;
21030;SDS011;61072;47.808;7.636;2023-08-20T06:39:29;11.48;;;6.28;;
21030;SDS011;61072;47.808;7.636;2023-08-20T06:41:56;10.27;;;5.57;;
21030;SDS011;61072;47.808;7.636;2023-08-20T06:44:22;11.05;;;6.25;;
21030;SDS011;61072;47.808;7.636;2023-08-20T06:46:49;7.28;;;5.50;;
21030;SDS011;61072;47.808;7.636;2023-08-20T06:49:16;9.70;;;6.72;;
21030;SDS011;61072;47.808;7.636;2023-08-20T06:51:43;8.27;;;5.82;;
21030;SDS011;61072;47.808;7.636;2023-08-20T06:54:09;8.77;;;6.50;;
21030;SDS011;61072;47.808;7.636;2023-08-20T06:56:36;7.25;;;6.40;;
21030;SDS011;61072;47.808;7.636;2023-08-20T06:59:03;10.32;;;6.75;;
21030;SDS011;61072;47.808;7.636;2023-08-20T07:01:30;9.55;;;7.50;;
21030;SDS011;61072;47.808;7.636;2023-08-20T07:03:56;9.90;;;7.30;;
21030;SDS011;61072;47.808;7.636;2023-08-20T07:06:23;11.05;;;6.38;;
21030;SDS011;61072;47.808;7.636;2023-08-20T07:08:50;10.05;;;7.28;;
21030;SDS011;61072;47.808;7.636;2023-08-20T07:11:17;8.10;;;6.30;;
21030;SDS011;61072;47.808;7.636;2023-08-20T07:13:44;8.20;;;6.72;;
21030;SDS011;61072;47.808;7.636;2023-08-20T07:16:11;11.68;;;7.45;;
21030;SDS011;61072;47.808;7.636;2023-08-20T07:18:37;9.05;;;6.90;;
21030;SDS011;61072;47.808;7.636;2023-08-20T07:21:04;9.68;;;6.75;;
21030;SDS011;61072;47.808;7.636;2023-08-20T07:23:31;7.70;;;6.50;;
21030;SDS011;61072;47.808;7.636;2023-08-20T07:26:05;7.80;;;6.82;;
21030;SDS011;61072;47.808;7.636;2023-08-20T07:28:36;10.63;;;6.68;;
21030;SDS011;61072;47.808;7.636;2023-08-20T07:31:22;9.85;;;7.32;;
21030;SDS011;61072;47.808;7.636;2023-08-20T07:33:54;10.25;;;7.30;;
21030;SDS011;61072;47.808;7.636;2023-08-20T07:36:22;10.40;;;7.43;;
21030;SDS011;61072;47.808;7.636;2023-08-20T07:38:50;13.55;;;8.05;;
21030;SDS011;61072;47.808;7.636;2023-08-20T07:41:19;12.68;;;7.25;;
21030;SDS011;61072;47.808;7.636;2023-08-20T07:43:46;9.15;;;7.82;;
21030;SDS011;61072;47.808;7.636;2023-08-20T07:46:13;9.93;;;8.07;;
21030;SDS011;61072;47.808;7.636;2023-08-20T07:48:41;8.27;;;7.20;;
21030;SDS011;61072;47.808;7.636;2023-08-20T07:51:08;11.80;;;6.97;;
21030;SDS011;61072;47.808;7.636;2023-08-20T07:53:35;10.32;;;7.28;;
21030;SDS011;61072;47.808;7.636;2023-08-20T07:56:01;7.35;;;6.65;;
21030;SDS011;61072;47.808;7.636;2023-08-20T07:58:29;10.80;;;7.25;;
21030;SDS011;61072;47.808;7.636;2023-08-20T08:00:56;9.18;;;6.97;;
21030;SDS011;61072;47.808;7.636;2023-08-20T08:03:24;10.85;;;7.53;;
21030;SDS011;61072;47.808;7.636;2023-08-20T08:05:53;7.95;;;6.75;;
21030;SDS011;61072;47.808;7.636;2023-08-20T08:08:20;10.13;;;6.50;;
21030;SDS011;61072;47.808;7.636;2023-08-20T08:10:47;9.88;;;6.78;;
21030;SDS011;61072;47.808;7.636;2023-08-20T08:13:15;15.02;;;7.43;;
21030;SDS011;61072;47.808;7.636;2023-08-20T08:15:45;10.55;;;8.43;;
21030;SDS011;61072;47.808;7.636;2023-08-20T08:18:12;9.30;;;7.15;;
21030;SDS011;61072;47.808;7.636;2023-08-20T08:20:39;11.77;;;8.38;;
21030;SDS011;61072;47.808;7.636;2023-08-20T08:23:05;9.60;;;7.28;;
21030;SDS011;61072;47.808;7.636;2023-08-20T08:25:32;12.88;;;7.43;;
21030;SDS011;61072;47.808;7.636;2023-08-20T08:27:59;9.30;;;7.75;;
21030;SDS011;61072;47.808;7.636;2023-08-20T08:30:27;10.07;;;7.25;;
21030;SDS011;61072;47.808;7.636;2023-08-20T08:32:55;9.23;;;7.22;;
21030;SDS011;61072;47.808;7.636;2023-08-20T08:35:22;10.15;;;7.50;;
21030;SDS011;61072;47.808;7.636;2023-08-20T08:37:49;8.35;;;6.75;;
21030;SDS011;61072;47.808;7.636;2023-08-20T08:40:16;11.55;;;7.85;;
21030;SDS011;61072;47.808;7.636;2023-08-20T08:42:43;10.55;;;7.63;;
21030;SDS011;61072;47.808;7.636;2023-08-20T08:45:15;9.27;;;6.97;;
21030;SDS011;61072;47.808;7.636;2023-08-20T08:47:46;11.50;;;7.25;;
21030;SDS011;61072;47.808;7.636;2023-08-20T08:50:14;10.52;;;8.00;;
21030;SDS011;61072;47.808;7.636;2023-08-20T08:52:41;11.70;;;7.53;;
21030;SDS011;61072;47.808;7.636;2023-08-20T08:55:11;11.88;;;7.53;;
21030;SDS011;61072;47.808;7.636;2023-08-20T08:57:37;10.77;;;7.65;;
21030;SDS011;61072;47.808;7.636;2023-08-20T09:00:04;9.63;;;6.55;;
21030;SDS011;61072;47.808;7.636;2023-08-20T09:02:31;15.68;;;8.00;;
21030;SDS011;61072;47.808;7.636;2023-08-20T09:04:58;10.05;;;6.63;;
21030;SDS011;61072;47.808;7.636;2023-08-20T09:07:25;8.43;;;6.47;;
21030;SDS011;61072;47.808;7.636;2023-08-20T09:09:56;11.52;;;6.78;;
21030;SDS011;61072;47.808;7.636;2023-08-20T09:12:25;13.43;;;6.25;;
21030;SDS011;61072;47.808;7.636;2023-08-20T09:14:53;9.05;;;6.13;;
21030;SDS011;61072;47.808;7.636;2023-08-20T09:17:25;9.52;;;6.65;;
21030;SDS011;61072;47.808;7.636;2023-08-20T09:19:54;8.80;;;6.65;;
21030;SDS011;61072;47.808;7.636;2023-08-20T09:22:24;8.68;;;6.72;;
21030;SDS011;61072;47.808;7.636;2023-08-20T09:24:56;10.30;;;6.43;;
21030;SDS011;61072;47.808;7.636;2023-08-20T09:27:23;9.63;;;6.32;;
21030;SDS011;61072;47.808;7.636;2023-08-20T09:29:52;7.90;;;5.72;;
21030;SDS011;61072;47.808;7.636;2023-08-20T09:32:25;7.32;;;5.50;;
21030;SDS011;61072;47.808;7.636;2023-08-20T09:34:53;10.43;;;6.38;;
21030;SDS011;61072;47.808;7.636;2023-08-20T09:37:22;8.57;;;6.25;;
21030;SDS011;61072;47.808;7.636;2023-08-20T09:39:50;10.05;;;5.70;;
21030;SDS011;61072;47.808;7.636;2023-08-20T09:42:18;6.47;;;5.88;;
21030;SDS011;61072;47.808;7.636;2023-08-20T09:44:46;9.15;;;5.53;;
21030;SDS011;61072;47.808;7.636;2023-08-20T09:47:17;7.80;;;5.47;;
21030;SDS011;61072;47.808;7.636;2023-08-20T09:49:45;9.35;;;5.82;;
21030;SDS011;61072;47.808;7.636;2023-08-20T09:52:25;8.55;;;6.05;;
21030;SDS011;61072;47.808;7.636;2023-08-20T09:55:06;9.85;;;5.35;;
21030;SDS011;61072;47.808;7.636;2023-08-20T09:57:37;8.55;;;5.47;;
21030;SDS011;61072;47.808;7.636;2023-08-20T10:00:10;9.35;;;5.38;;
21030;SDS011;61072;47.808;7.636;2023-08-20T10:02:38;7.50;;;5.82;;
21030;SDS011;61072;47.808;7.636;2023-08-20T10:05:07;8.35;;;5.95;;
21030;SDS011;61072;47.808;7.636;2023-08-20T10:07:37;8.90;;;5.60;;
21030;SDS011;61072;47.808;7.636;2023-08-20T10:10:05;8.88;;;5.15;;
21030;SDS011;61072;47.808;7.636;2023-08-20T10:12:33;10.00;;;5.75;;
21030;SDS011;61072;47.808;7.636;2023-08-20T10:15:02;7.18;;;4.72;;
21030;SDS011;61072;47.808;7.636;2023-08-20T10:17:30;8.73;;;5.18;;
21030;SDS011;61072;47.808;7.636;2023-08-20T10:20:01;8.68;;;5.45;;
21030;SDS011;61072;47.808;7.636;2023-08-20T10:25:00;7.72;;;4.40;;
21030;SDS011;61072;47.808;7.636;2023-08-20T10:27:33;6.85;;;5.20;;
21030;SDS011;61072;47.808;7.636;2023-08-20T10:30:02;10.85;;;5.63;;
21030;SDS011;61072;47.808;7.636;2023-08-20T10:32:44;7.05;;;4.80;;
21030;SDS011;61072;47.808;7.636;2023-08-20T10:35:14;9.77;;;5.18;;
21030;SDS011;61072;47.808;7.636;2023-08-20T10:46:01;6.07;;;4.80;;
21030;SDS011;61072;47.808;7.636;2023-08-20T10:48:36;5.88;;;5.28;;
21030;SDS011;61072;47.808;7.636;2023-08-20T10:53:40;5.35;;;4.70;;
21030;SDS011;61072;47.808;7.636;2023-08-20T10:56:12;7.05;;;4.80;;
21030;SDS011;61072;47.808;7.636;2023-08-20T10:58:46;11.63;;;5.22;;
21030;SDS011;61072;47.808;7.636;2023-08-20T11:01:18;8.80;;;4.90;;
21030;SDS011;61072;47.808;7.636;2023-08-20T11:03:48;6.70;;;5.10;;
21030;SDS011;61072;47.808;7.636;2023-08-20T11:06:16;10.70;;;5.22;;
21030;SDS011;61072;47.808;7.636;2023-08-20T11:08:44;9.05;;;5.32;;
21030;SDS011;61072;47.808;7.636;2023-08-20T11:11:11;7.57;;;4.50;;
21030;SDS011;61072;47.808;7.636;2023-08-20T11:13:39;9.18;;;4.47;;
21030;SDS011;61072;47.808;7.636;2023-08-20T11:16:06;6.78;;;5.05;;
21030;SDS011;61072;47.808;7.636;2023-08-20T11:18:34;7.82;;;4.65;;
21030;SDS011;61072;47.808;7.636;2023-08-20T11:21:01;5.47;;;4.85;;
21030;SDS011;61072;47.808;7.636;2023-08-20T11:23:29;5.90;;;5.05;;
21030;SDS011;61072;47.808;7.636;2023-08-20T11:25:56;5.10;;;4.32;;
21030;SDS011;61072;47.808;7.636;2023-08-20T11:28:24;6.85;;;4.90;;
21030;SDS011;61072;47.808;7.636;2023-08-20T11:30:52;9.85;;;4.78;;
21030;SDS011;61072;47.808;7.636;2023-08-20T11:33:19;10.20;;;4.70;;
21030;SDS011;61072;47.808;7.636;2023-08-20T11:35:47;11.18;;;4.50;;
21030;SDS011;61072;47.808;7.636;2023-08-20T11:38:14;8.43;;;5.32;;
21030;SDS011;61072;47.808;7.636;2023-08-20T11:40:41;11.82;;;4.60;;
21030;SDS011;61072;47.808;7.636;2023-08-20T11:43:08;7.53;;;4.25;;
21030;SDS011;61072;47.808;7.636;2023-08-20T11:45:43;6.95;;;4.50;;
21030;SDS011;61072;47.808;7.636;2023-08-20T11:48:11;7.97;;;4.03;;
21030;SDS011;61072;47.808;7.636;2023-08-20T11:50:37;8.02;;;4.57;;
21030;SDS011;61072;47.808;7.636;2023-08-20T11:53:04;9.98;;;5.22;;
21030;SDS011;61072;47.808;7.636;2023-08-20T11:55:31;5.55;;;4.95;;
21030;SDS011;61072;47.808;7.636;2023-08-20T11:57:58;13.60;;;5.70;;
21030;SDS011;61072;47.808;7.636;2023-08-20T12:00:29;9.15;;;5.60;;
21030;SDS011;61072;47.808;7.636;2023-08-20T12:02:57;10.10;;;5.63;;
21030;SDS011;61072;47.808;7.636;2023-08-20T12:05:27;6.55;;;5.20;;
21030;SDS011;61072;47.808;7.636;2023-08-20T12:07:55;5.45;;;4.65;;
21030;SDS011;61072;47.808;7.636;2023-08-20T12:10:24;8.95;;;4.40;;
21030;SDS011;61072;47.808;7.636;2023-08-20T12:12:52;6.50;;;4.43;;
21030;SDS011;61072;47.808;7.636;2023-08-20T12:15:20;6.20;;;4.35;;
21030;SDS011;61072;47.808;7.636;2023-08-20T12:22:57;7.00;;;4.28;;
21030;SDS011;61072;47.808;7.636;2023-08-20T12:25:25;6.22;;;4.25;;
21030;SDS011;61072;47.808;7.636;2023-08-20T12:27:52;7.28;;;4.75;;
21030;SDS011;61072;47.808;7.636;2023-08-20T12:30:19;6.97;;;4.43;;
21030;SDS011;61072;47.808;7.636;2023-08-20T12:32:46;7.53;;;4.18;;
21030;SDS011;61072;47.808;7.636;2023-08-20T12:35:13;7.78;;;3.88;;
21030;SDS011;61072;47.808;7.636;2023-08-20T12:37:40;5.07;;;4.00;;
21030;SDS011;61072;47.808;7.636;2023-08-20T12:40:07;10.38;;;3.97;;
21030;SDS011;61072;47.808;7.636;2023-08-20T12:42:37;7.78;;;4.28;;
21030;SDS011;61072;47.808;7.636;2023-08-20T12:45:07;9.68;;;4.28;;
21030;SDS011;61072;47.808;7.636;2023-08-20T12:47:34;7.63;;;3.88;;
21030;SDS011;61072;47.808;7.636;2023-08-20T12:50:01;8.52;;;3.95;;
21030;SDS011;61072;47.808;7.636;2023-08-20T12:52:31;8.80;;;4.60;;
21030;SDS011;61072;47.808;7.636;2023-08-20T12:54:58;7.80;;;4.50;;
21030;SDS011;61072;47.808;7.636;2023-08-20T12:57:25;7.47;;;4.20;;
21030;SDS011;61072;47.808;7.636;2023-08-20T12:59:52;7.53;;;4.32;;
21030;SDS011;61072;47.808;7.636;2023-08-20T13:02:19;7.65;;;4.22;;
21030;SDS011;61072;47.808;7.636;2023-08-20T13:04:47;10.80;;;4.40;;
21030;SDS011;61072;47.808;7.636;2023-08-20T13:07:14;8.68;;;4.53;;
21030;SDS011;61072;47.808;7.636;2023-08-20T13:09:41;8.65;;;4.43;;
21030;SDS011;61072;47.808;7.636;2023-08-20T13:12:09;6.28;;;4.90;;
21030;SDS011;61072;47.808;7.636;2023-08-20T13:14:39;7.18;;;4.20;;
21030;SDS011;61072;47.808;7.636;2023-08-20T13:17:07;6.72;;;4.25;;
21030;SDS011;61072;47.808;7.636;2023-08-20T13:19:34;5.60;;;4.55;;
21030;SDS011;61072;47.808;7.636;2023-08-20T13:22:01;7.38;;;4.25;;
21030;SDS011;61072;47.808;7.636;2023-08-20T13:24:28;6.57;;;4.18;;
21030;SDS011;61072;47.808;7.636;2023-08-20T13:26:54;7.43;;;4.75;;
21030;SDS011;61072;47.808;7.636;2023-08-20T13:29:21;6.35;;;4.32;;
21030;SDS011;61072;47.808;7.636;2023-08-20T13:31:48;9.35;;;4.35;;
21030;SDS011;61072;47.808;7.636;2023-08-20T13:34:15;10.13;;;4.45;;
21030;SDS011;61072;47.808;7.636;2023-08-20T13:36:41;9.68;;;4.40;;
21030;SDS011;61072;47.808;7.636;2023-08-20T13:39:08;9.25;;;4.45;;
21030;SDS011;61072;47.808;7.636;2023-08-20T13:41:35;5.13;;;4.30;;
21030;SDS011;61072;47.808;7.636;2023-08-20T13:44:01;6.32;;;4.40;;
21030;SDS011;61072;47.808;7.636;2023-08-20T13:46:28;10.13;;;4.90;;
21030;SDS011;61072;47.808;7.636;2023-08-20T13:48:56;6.00;;;4.43;;
21030;SDS011;61072;47.808;7.636;2023-08-20T13:51:22;9.80;;;5.00;;
21030;SDS011;61072;47.808;7.636;2023-08-20T13:53:49;8.32;;;4.30;;
21030;SDS011;61072;47.808;7.636;2023-08-20T13:56:16;6.97;;;5.32;;
21030;SDS011;61072;47.808;7.636;2023-08-20T13:58:43;6.45;;;4.47;;
21030;SDS011;61072;47.808;7.636;2023-08-20T14:01:10;6.68;;;4.63;;
21030;SDS011;61072;47.808;7.636;2023-08-20T14:03:37;10.45;;;5.00;;
21030;SDS011;61072;47.808;7.636;2023-08-20T14:06:04;7.95;;;5.10;;
21030;SDS011;61072;47.808;7.636;2023-08-20T14:08:31;6.35;;;4.40;;
21030;SDS011;61072;47.808;7.636;2023-08-20T14:10:58;7.70;;;4.63;;
21030;SDS011;61072;47.808;7.636;2023-08-20T14:13:25;5.38;;;4.57;;
21030;SDS011;61072;47.808;7.636;2023-08-20T14:15:52;9.60;;;5.05;;
21030;SDS011;61072;47.808;7.636;2023-08-20T14:18:19;9.25;;;4.35;;
21030;SDS011;61072;47.808;7.636;2023-08-20T14:20:45;7.95;;;5.00;;
21030;SDS011;61072;47.808;7.636;2023-08-20T14:23:12;7.63;;;4.63;;
21030;SDS011;61072;47.808;7.636;2023-08-20T14:25:39;6.65;;;4.57;;
21030;SDS011;61072;47.808;7.636;2023-08-20T14:28:07;9.88;;;4.30;;
21030;SDS011;61072;47.808;7.636;2023-08-20T14:30:38;7.60;;;4.40;;
21030;SDS011;61072;47.808;7.636;2023-08-20T14:33:05;5.50;;;3.78;;
21030;SDS011;61072;47.808;7.636;2023-08-20T14:35:32;8.13;;;3.90;;
21030;SDS011;61072;47.808;7.636;2023-08-20T14:37:59;8.15;;;4.40;;
21030;SDS011;61072;47.808;7.636;2023-08-20T14:40:26;9.82;;;3.55;;
21030;SDS011;61072;47.808;7.636;2023-08-20T14:42:52;8.65;;;4.13;;
21030;SDS011;61072;47.808;7.636;2023-08-20T14:45:19;8.65;;;3.90;;
21030;SDS011;61072;47.808;7.636;2023-08-20T14:47:46;8.45;;;4.47;;
21030;SDS011;61072;47.808;7.636;2023-08-20T14:50:13;7.28;;;3.67;;
21030;SDS011;61072;47.808;7.636;2023-08-20T14:52:39;8.52;;;4.18;;
21030;SDS011;61072;47.808;7.636;2023-08-20T14:55:06;8.95;;;4.30;;
21030;SDS011;61072;47.808;7.636;2023-08-20T14:57:35;9.88;;;3.95;;
21030;SDS011;61072;47.808;7.636;2023-08-20T15:00:17;9.38;;;4.30;;
21030;SDS011;61072;47.808;7.636;2023-08-20T15:02:44;9.35;;;3.88;;
21030;SDS011;61072;47.808;7.636;2023-08-20T15:05:11;5.13;;;3.75;;
21030;SDS011;61072;47.808;7.636;2023-08-20T15:07:38;10.00;;;4.15;;
21030;SDS011;61072;47.808;7.636;2023-08-20T15:10:06;8.05;;;3.63;;
21030;SDS011;61072;47.808;7.636;2023-08-20T15:12:33;9.95;;;4.00;;